Time;durP1;ratioP1;P1;durP2;ratioP2;P2;SDS_P1;SDS_P2;PMS_P1;PMS_P2;Temp;Humidity;BMP_temperature;BMP_pressure;BME280_temperature;BME280_humidity;BME280_pressure;Samples;Min_cycle;Max_cycle;Signal;HPM_P1;HPM_P2
2022/04/08 00:00:59;;;;;;;27.90;3.07;;;;;;;;;;5043831;28;20263;-73
2022/04/08 00:03:25;;;;;;;26.25;3.50;;;;;;;;;;5039652;28;20328;-72
2022/04/08 00:05:52;;;;;;;25.13;2.85;;;;;;;;;;5045513;28;20491;-72
2022/04/08 00:08:17;;;;;;;32.20;2.97;;;;;;;;;;5046532;28;20391;-72
2022/04/08 00:10:42;;;;;;;18.43;2.47;;;;;;;;;;5040167;28;20031;-72
2022/04/08 00:13:07;;;;;;;29.02;2.35;;;;;;;;;;5038123;28;20321;-75
2022/04/08 00:15:33;;;;;;;26.83;2.10;;;;;;;;;;5043665;28;20273;-73
2022/04/08 00:17:59;;;;;;;24.80;3.05;;;;;;;;;;5047010;28;20309;-73
2022/04/08 00:20:25;;;;;;;8.27;2.33;;;;;;;;;;5047462;28;20059;-73
2022/04/08 00:22:50;;;;;;;17.77;3.25;;;;;;;;;;5038538;28;20026;-73
2022/04/08 00:25:16;;;;;;;11.27;1.65;;;;;;;;;;5030167;28;20395;-73
2022/04/08 00:27:43;;;;;;;19.30;2.70;;;;;;;;;;5033975;28;20522;-72
2022/04/08 00:30:08;;;;;;;26.33;3.05;;;;;;;;;;5040863;28;20539;-73
2022/04/08 00:32:34;;;;;;;17.17;2.90;;;;;;;;;;5041530;28;20108;-73
2022/04/08 00:34:59;;;;;;;18.70;2.75;;;;;;;;;;5038439;28;20026;-73
2022/04/08 00:37:24;;;;;;;26.75;3.67;;;;;;;;;;5039786;28;20478;-73
2022/04/08 00:39:50;;;;;;;15.57;1.90;;;;;;;;;;5046392;28;20124;-73
2022/04/08 00:42:15;;;;;;;40.25;3.80;;;;;;;;;;5040214;28;20036;-72
2022/04/08 00:44:40;;;;;;;20.23;2.40;;;;;;;;;;5041645;28;20024;-72
2022/04/08 00:47:05;;;;;;;40.28;2.53;;;;;;;;;;5035123;28;20773;-73
2022/04/08 00:49:32;;;;;;;25.77;2.58;;;;;;;;;;5047954;28;20036;-73
2022/04/08 00:51:59;;;;;;;36.13;4.40;;;;;;;;;;5043333;28;20518;-73
2022/04/08 00:54:24;;;;;;;14.32;2.88;;;;;;;;;;5039692;28;20472;-73
2022/04/08 00:56:49;;;;;;;25.00;2.67;;;;;;;;;;5040137;28;20047;-72
2022/04/08 00:59:15;;;;;;;38.88;3.50;;;;;;;;;;5037758;28;20464;-73
2022/04/08 01:01:40;;;;;;;14.23;1.63;;;;;;;;;;5033605;28;20033;-74
2022/04/08 01:04:07;;;;;;;15.97;2.93;;;;;;;;;;5039920;28;20110;-73
2022/04/08 01:06:32;;;;;;;36.17;3.13;;;;;;;;;;5042040;28;20277;-73
2022/04/08 01:08:57;;;;;;;36.50;5.07;;;;;;;;;;5034764;28;20032;-73
2022/04/08 01:11:23;;;;;;;15.33;2.07;;;;;;;;;;5042579;28;20029;-73
2022/04/08 01:13:49;;;;;;;35.55;2.40;;;;;;;;;;5035241;28;20321;-74
2022/04/08 01:16:15;;;;;;;31.48;3.28;;;;;;;;;;5037446;28;20130;-73
2022/04/08 01:18:40;;;;;;;27.70;4.40;;;;;;;;;;5045356;28;20276;-72
2022/04/08 01:21:06;;;;;;;25.20;2.75;;;;;;;;;;5042027;28;20040;-73
2022/04/08 01:23:35;;;;;;;18.35;1.88;;;;;;;;;;5041013;28;20270;-73
2022/04/08 01:26:04;;;;;;;19.95;2.53;;;;;;;;;;5040446;28;20382;-73
2022/04/08 01:28:29;;;;;;;15.77;2.70;;;;;;;;;;5035220;28;20021;-74
2022/04/08 01:30:54;;;;;;;15.00;2.53;;;;;;;;;;5045200;28;20031;-73
2022/04/08 01:33:20;;;;;;;23.08;2.92;;;;;;;;;;5037111;28;20767;-74
2022/04/08 01:35:45;;;;;;;31.73;2.38;;;;;;;;;;5044035;28;20475;-74
2022/04/08 01:38:10;;;;;;;18.03;2.50;;;;;;;;;;5044373;28;20029;-74
2022/04/08 01:40:35;;;;;;;27.70;2.97;;;;;;;;;;5046694;28;20314;-73
2022/04/08 01:43:00;;;;;;;25.23;3.50;;;;;;;;;;5045621;28;20242;-74
2022/04/08 01:45:26;;;;;;;29.15;3.15;;;;;;;;;;5040535;28;20258;-73
2022/04/08 01:47:51;;;;;;;30.25;2.85;;;;;;;;;;5041529;28;20067;-74
2022/04/08 01:50:18;;;;;;;22.48;3.35;;;;;;;;;;5046220;28;20068;-74
2022/04/08 01:52:44;;;;;;;38.33;4.13;;;;;;;;;;5041578;28;20276;-73
2022/04/08 01:55:09;;;;;;;16.33;3.13;;;;;;;;;;5038630;28;20029;-74
2022/04/08 01:57:34;;;;;;;13.70;2.27;;;;;;;;;;5034953;28;20025;-75
2022/04/08 01:59:59;;;;;;;11.82;2.60;;;;;;;;;;5040830;28;20258;-74
2022/04/08 02:02:24;;;;;;;20.37;2.47;;;;;;;;;;5044478;28;20023;-73
2022/04/08 02:04:50;;;;;;;20.25;3.22;;;;;;;;;;5041277;28;20843;-74
2022/04/08 02:07:15;;;;;;;22.80;3.13;;;;;;;;;;5040352;28;20033;-74
2022/04/08 02:09:40;;;;;;;19.33;2.53;;;;;;;;;;5041554;28;20365;-75
2022/04/08 02:12:05;;;;;;;24.15;2.72;;;;;;;;;;5031931;28;20266;-74
2022/04/08 02:14:30;;;;;;;18.98;2.17;;;;;;;;;;5041225;28;20589;-74
2022/04/08 02:16:56;;;;;;;15.90;2.88;;;;;;;;;;5032825;28;20029;-73
2022/04/08 02:19:21;;;;;;;40.05;3.05;;;;;;;;;;5046853;28;20526;-73
2022/04/08 02:21:48;;;;;;;21.98;2.80;;;;;;;;;;5046626;28;20029;-73
2022/04/08 02:24:13;;;;;;;9.02;2.53;;;;;;;;;;5040076;28;20347;-73
2022/04/08 02:26:38;;;;;;;26.88;3.28;;;;;;;;;;5040457;28;20494;-73
2022/04/08 02:29:04;;;;;;;16.88;2.00;;;;;;;;;;5042936;28;20373;-74
2022/04/08 02:31:29;;;;;;;20.65;2.15;;;;;;;;;;5039627;28;20224;-74
2022/04/08 02:33:54;;;;;;;18.60;2.42;;;;;;;;;;5037291;28;20039;-73
2022/04/08 02:36:19;;;;;;;23.27;2.92;;;;;;;;;;5037843;28;20048;-73
2022/04/08 02:38:44;;;;;;;22.00;3.10;;;;;;;;;;5039146;28;20274;-74
2022/04/08 02:41:09;;;;;;;30.83;2.97;;;;;;;;;;5038770;28;20376;-74
2022/04/08 02:43:35;;;;;;;31.10;2.88;;;;;;;;;;5033205;28;20267;-74
2022/04/08 02:46:01;;;;;;;27.35;3.40;;;;;;;;;;5040540;28;20096;-73
2022/04/08 02:48:26;;;;;;;26.52;4.53;;;;;;;;;;5046907;28;20625;-73
2022/04/08 02:50:51;;;;;;;23.48;2.63;;;;;;;;;;5048294;28;20041;-74
2022/04/08 02:53:16;;;;;;;27.77;3.35;;;;;;;;;;5046542;28;20411;-73
2022/04/08 02:55:41;;;;;;;17.45;2.60;;;;;;;;;;5043064;28;20248;-73
2022/04/08 02:58:06;;;;;;;16.35;3.58;;;;;;;;;;5034966;28;20283;-73
2022/04/08 03:00:31;;;;;;;28.50;3.50;;;;;;;;;;5043167;28;20269;-73
2022/04/08 03:02:57;;;;;;;23.33;2.55;;;;;;;;;;5045769;28;20270;-74
2022/04/08 03:05:22;;;;;;;11.05;2.08;;;;;;;;;;5046392;28;20259;-73
2022/04/08 03:07:47;;;;;;;20.35;4.35;;;;;;;;;;5039114;28;20467;-73
2022/04/08 03:10:13;;;;;;;25.85;3.42;;;;;;;;;;5041983;28;20616;-73
2022/04/08 03:12:38;;;;;;;18.63;2.97;;;;;;;;;;5033057;28;20267;-73
2022/04/08 03:15:04;;;;;;;16.85;2.50;;;;;;;;;;5044575;28;20124;-74
2022/04/08 03:17:29;;;;;;;23.60;3.45;;;;;;;;;;5036430;28;20117;-74
2022/04/08 03:19:55;;;;;;;23.83;3.33;;;;;;;;;;5036038;28;20536;-73
2022/04/08 03:22:21;;;;;;;31.20;3.05;;;;;;;;;;5041073;28;20091;-73
2022/04/08 03:24:52;;;;;;;23.42;2.88;;;;;;;;;;5046395;28;20025;-73
2022/04/08 03:27:17;;;;;;;28.80;2.70;;;;;;;;;;5042958;28;20455;-73
2022/04/08 03:29:43;;;;;;;23.35;2.92;;;;;;;;;;5049589;28;20033;-73
2022/04/08 03:32:08;;;;;;;29.63;2.50;;;;;;;;;;5045494;28;20071;-73
2022/04/08 03:34:34;;;;;;;9.07;2.22;;;;;;;;;;5043174;28;20475;-73
2022/04/08 03:36:59;;;;;;;19.50;2.60;;;;;;;;;;5042510;28;20107;-73
2022/04/08 03:39:25;;;;;;;16.42;3.20;;;;;;;;;;5046295;28;20383;-74
2022/04/08 03:41:50;;;;;;;11.38;2.80;;;;;;;;;;5041432;28;20039;-73
2022/04/08 03:44:15;;;;;;;17.67;2.63;;;;;;;;;;5047488;28;20021;-74
2022/04/08 03:46:44;;;;;;;30.27;3.10;;;;;;;;;;5044599;28;21210;-73
2022/04/08 03:49:14;;;;;;;17.58;3.22;;;;;;;;;;5042547;28;20297;-73
2022/04/08 03:51:39;;;;;;;14.80;2.90;;;;;;;;;;5047330;28;20017;-74
2022/04/08 03:54:04;;;;;;;15.85;3.05;;;;;;;;;;5051185;28;20502;-73
2022/04/08 03:56:29;;;;;;;13.73;3.00;;;;;;;;;;5043131;28;20078;-74
2022/04/08 03:58:55;;;;;;;23.60;4.40;;;;;;;;;;5039933;28;20021;-74
2022/04/08 04:01:20;;;;;;;23.13;4.65;;;;;;;;;;5042181;28;20262;-75
2022/04/08 04:03:45;;;;;;;21.63;3.55;;;;;;;;;;5041698;28;20250;-74
2022/04/08 04:06:10;;;;;;;25.23;5.47;;;;;;;;;;5039655;28;20282;-74
2022/04/08 04:08:35;;;;;;;26.73;3.25;;;;;;;;;;5049448;28;20273;-74
2022/04/08 04:11:00;;;;;;;15.02;4.07;;;;;;;;;;5051026;28;20732;-74
2022/04/08 04:13:25;;;;;;;20.43;3.40;;;;;;;;;;5040188;28;20298;-74
2022/04/08 04:15:51;;;;;;;24.93;4.03;;;;;;;;;;5048361;28;20274;-74
2022/04/08 04:18:16;;;;;;;20.90;3.80;;;;;;;;;;5043831;28;20310;-74
2022/04/08 04:20:41;;;;;;;28.25;3.60;;;;;;;;;;5039000;28;20258;-74
2022/04/08 04:23:06;;;;;;;22.25;4.55;;;;;;;;;;5040364;28;20033;-74
2022/04/08 04:25:31;;;;;;;33.40;4.60;;;;;;;;;;5041931;28;20271;-74
2022/04/08 04:27:56;;;;;;;28.90;4.27;;;;;;;;;;5039690;28;20705;-74
2022/04/08 04:30:23;;;;;;;18.33;4.33;;;;;;;;;;5046849;28;20261;-74
2022/04/08 04:32:49;;;;;;;25.45;4.38;;;;;;;;;;5038989;28;20262;-74
2022/04/08 04:35:14;;;;;;;35.90;4.82;;;;;;;;;;5049735;28;20051;-74
2022/04/08 04:37:39;;;;;;;25.60;4.45;;;;;;;;;;5043434;28;20719;-74
2022/04/08 04:40:06;;;;;;;23.85;3.88;;;;;;;;;;5047546;28;20510;-74
2022/04/08 04:42:31;;;;;;;13.93;3.70;;;;;;;;;;5046219;28;20017;-74
2022/04/08 04:44:57;;;;;;;21.75;3.63;;;;;;;;;;5041106;28;20032;-74
2022/04/08 04:47:22;;;;;;;29.05;4.35;;;;;;;;;;5045909;28;20102;-74
2022/04/08 04:49:47;;;;;;;25.70;4.80;;;;;;;;;;5042224;28;20498;-74
2022/04/08 04:52:12;;;;;;;18.13;4.22;;;;;;;;;;5042259;28;20036;-74
2022/04/08 04:54:38;;;;;;;22.08;3.67;;;;;;;;;;5043808;28;20017;-74
2022/04/08 04:57:03;;;;;;;17.25;4.15;;;;;;;;;;5042203;28;20349;-75
2022/04/08 04:59:29;;;;;;;33.22;4.88;;;;;;;;;;5036160;28;20032;-75
2022/04/08 05:01:54;;;;;;;32.58;4.70;;;;;;;;;;5041969;28;20374;-73
2022/04/08 05:04:19;;;;;;;22.92;5.53;;;;;;;;;;5047688;28;20053;-74
2022/04/08 05:06:45;;;;;;;22.08;4.65;;;;;;;;;;5036112;28;20467;-73
2022/04/08 05:09:10;;;;;;;28.92;5.10;;;;;;;;;;5041681;28;20033;-74
2022/04/08 05:11:35;;;;;;;25.42;5.10;;;;;;;;;;5041002;28;20099;-75
2022/04/08 05:14:00;;;;;;;29.55;4.47;;;;;;;;;;5042861;28;20269;-75
2022/04/08 05:16:25;;;;;;;36.95;6.00;;;;;;;;;;5030603;28;20029;-76
2022/04/08 05:18:51;;;;;;;25.30;3.90;;;;;;;;;;5042567;28;20046;-74
2022/04/08 05:21:16;;;;;;;17.95;4.07;;;;;;;;;;5038020;28;20071;-74
2022/04/08 05:23:41;;;;;;;29.58;4.70;;;;;;;;;;5036416;28;20025;-74
2022/04/08 05:26:06;;;;;;;27.93;6.50;;;;;;;;;;5043858;28;20052;-74
2022/04/08 05:28:31;;;;;;;36.90;5.70;;;;;;;;;;5036151;28;20282;-75
2022/04/08 05:30:56;;;;;;;34.28;6.25;;;;;;;;;;5043044;28;20277;-77
2022/04/08 05:33:22;;;;;;;33.37;5.10;;;;;;;;;;5038392;28;20550;-72
2022/04/08 05:35:47;;;;;;;13.85;4.10;;;;;;;;;;5036670;28;20281;-74
2022/04/08 05:38:12;;;;;;;21.42;5.03;;;;;;;;;;5038803;28;20071;-74
2022/04/08 05:40:37;;;;;;;28.02;5.40;;;;;;;;;;5032359;28;20364;-75
2022/04/08 05:43:02;;;;;;;27.35;5.40;;;;;;;;;;5036022;28;20020;-72
2022/04/08 05:45:27;;;;;;;26.45;5.80;;;;;;;;;;5041559;28;20265;-75
2022/04/08 05:47:55;;;;;;;42.60;6.55;;;;;;;;;;5045363;28;20020;-74
2022/04/08 05:50:21;;;;;;;30.58;5.97;;;;;;;;;;5043268;28;20044;-74
2022/04/08 05:52:51;;;;;;;26.48;6.68;;;;;;;;;;5043742;28;20728;-74
2022/04/08 05:55:17;;;;;;;31.38;6.90;;;;;;;;;;5039341;28;20151;-73
2022/04/08 05:57:42;;;;;;;19.95;6.95;;;;;;;;;;5039396;28;20104;-74
2022/04/08 06:00:12;;;;;;;25.38;6.28;;;;;;;;;;5037136;28;20277;-74
2022/04/08 06:02:37;;;;;;;29.75;7.22;;;;;;;;;;5040089;28;20306;-74
2022/04/08 06:05:02;;;;;;;27.40;5.97;;;;;;;;;;5038127;28;20132;-74
2022/04/08 06:07:27;;;;;;;33.13;8.23;;;;;;;;;;5037864;28;20033;-73
2022/04/08 06:09:53;;;;;;;18.88;5.80;;;;;;;;;;5035221;28;20107;-74
2022/04/08 06:12:18;;;;;;;28.58;6.07;;;;;;;;;;5038611;28;20055;-74
2022/04/08 06:14:44;;;;;;;21.58;5.82;;;;;;;;;;5037976;28;20033;-74
2022/04/08 06:17:09;;;;;;;27.92;8.55;;;;;;;;;;5032469;28;20281;-73
2022/04/08 06:19:34;;;;;;;25.77;7.43;;;;;;;;;;5040282;28;21056;-73
2022/04/08 06:21:59;;;;;;;18.52;5.75;;;;;;;;;;5031959;28;20324;-74
2022/04/08 06:24:24;;;;;;;29.90;6.70;;;;;;;;;;5044052;28;20020;-74
2022/04/08 06:26:50;;;;;;;31.42;8.38;;;;;;;;;;5046494;28;20025;-73
2022/04/08 06:29:15;;;;;;;23.60;6.35;;;;;;;;;;5041220;28;20087;-73
2022/04/08 06:31:40;;;;;;;28.60;6.53;;;;;;;;;;5045049;28;20546;-73
2022/04/08 06:34:05;;;;;;;22.20;5.80;;;;;;;;;;5045772;28;20349;-73
2022/04/08 06:36:30;;;;;;;22.50;6.03;;;;;;;;;;5045278;28;20756;-74
2022/04/08 06:38:55;;;;;;;22.48;6.68;;;;;;;;;;5047181;28;20273;-73
2022/04/08 06:41:21;;;;;;;30.40;7.70;;;;;;;;;;5044745;28;20017;-73
2022/04/08 06:43:46;;;;;;;19.95;5.97;;;;;;;;;;5047572;28;20268;-73
2022/04/08 06:46:11;;;;;;;16.17;5.53;;;;;;;;;;5052354;28;20488;-72
2022/04/08 06:48:37;;;;;;;22.75;7.60;;;;;;;;;;5055949;28;20502;-73
2022/04/08 06:51:04;;;;;;;23.23;6.57;;;;;;;;;;5041775;28;20091;-73
2022/04/08 06:53:29;;;;;;;20.58;6.78;;;;;;;;;;5044929;28;20021;-73
2022/04/08 06:55:55;;;;;;;25.13;6.93;;;;;;;;;;5044756;28;20057;-73
2022/04/08 06:58:20;;;;;;;24.55;7.07;;;;;;;;;;5049844;28;20450;-74
2022/04/08 07:00:45;;;;;;;20.33;7.32;;;;;;;;;;5043518;28;20103;-72
2022/04/08 07:03:10;;;;;;;27.10;7.25;;;;;;;;;;5048173;28;20025;-74
2022/04/08 07:05:35;;;;;;;21.27;7.63;;;;;;;;;;5042891;28;20483;-73
2022/04/08 07:08:00;;;;;;;18.13;7.53;;;;;;;;;;5044244;28;20311;-75
2022/04/08 07:10:26;;;;;;;28.27;7.25;;;;;;;;;;5042312;28;20286;-74
2022/04/08 07:12:51;;;;;;;23.75;8.00;;;;;;;;;;5043737;28;20025;-74
2022/04/08 07:15:16;;;;;;;26.03;6.83;;;;;;;;;;5046003;28;20033;-73
2022/04/08 07:17:42;;;;;;;29.08;8.18;;;;;;;;;;5042687;28;20306;-74
2022/04/08 07:20:07;;;;;;;19.42;7.32;;;;;;;;;;5042260;28;20495;-73
2022/04/08 07:22:33;;;;;;;25.67;8.68;;;;;;;;;;5049268;28;20028;-73
2022/04/08 07:24:58;;;;;;;21.42;6.28;;;;;;;;;;5046058;28;20061;-74
2022/04/08 07:27:23;;;;;;;20.38;7.22;;;;;;;;;;5038193;28;20088;-73
2022/04/08 07:29:49;;;;;;;39.83;7.78;;;;;;;;;;5043909;28;20099;-72
2022/04/08 07:32:20;;;;;;;21.48;8.35;;;;;;;;;;5046094;28;20024;-73
2022/04/08 07:34:46;;;;;;;22.83;8.88;;;;;;;;;;5045053;28;20421;-71
2022/04/08 07:37:11;;;;;;;27.00;8.48;;;;;;;;;;5042882;28;20029;-75
2022/04/08 07:39:41;;;;;;;36.50;10.43;;;;;;;;;;5044736;28;20036;-74
2022/04/08 07:42:06;;;;;;;29.60;9.40;;;;;;;;;;5041235;28;20354;-73
2022/04/08 07:44:31;;;;;;;34.22;10.50;;;;;;;;;;5035960;28;20100;-72
2022/04/08 07:46:56;;;;;;;33.67;11.67;;;;;;;;;;5049703;28;20029;-73
2022/04/08 07:49:22;;;;;;;26.88;9.50;;;;;;;;;;5049617;28;20261;-76
2022/04/08 07:51:47;;;;;;;32.93;10.57;;;;;;;;;;5041651;28;20202;-76
2022/04/08 07:54:12;;;;;;;28.77;10.07;;;;;;;;;;5048675;28;20289;-72
2022/04/08 07:56:37;;;;;;;27.48;10.30;;;;;;;;;;5046954;28;20258;-72
2022/04/08 07:59:03;;;;;;;35.45;10.38;;;;;;;;;;5041949;28;20578;-73
2022/04/08 08:01:28;;;;;;;27.08;10.27;;;;;;;;;;5045878;28;20345;-72
2022/04/08 08:03:54;;;;;;;34.30;11.48;;;;;;;;;;5052377;28;20028;-73
2022/04/08 08:06:20;;;;;;;24.83;10.57;;;;;;;;;;5052350;28;20023;-72
2022/04/08 08:08:46;;;;;;;21.70;9.10;;;;;;;;;;5050564;28;20025;-74
2022/04/08 08:11:13;;;;;;;30.13;12.45;;;;;;;;;;5042409;28;20048;-73
2022/04/08 08:13:38;;;;;;;27.63;11.23;;;;;;;;;;5044101;28;20029;-75
2022/04/08 08:16:04;;;;;;;30.38;10.15;;;;;;;;;;5039454;28;20044;-74
2022/04/08 08:18:29;;;;;;;24.98;10.32;;;;;;;;;;5036829;28;20044;-73
2022/04/08 08:20:54;;;;;;;28.73;11.20;;;;;;;;;;5035363;28;20096;-73
2022/04/08 08:23:19;;;;;;;33.67;10.73;;;;;;;;;;5040656;28;20268;-70
2022/04/08 08:25:45;;;;;;;28.85;9.55;;;;;;;;;;5039237;28;20266;-71
2022/04/08 08:28:10;;;;;;;22.10;10.52;;;;;;;;;;5041967;28;20270;-72
2022/04/08 08:30:38;;;;;;;27.05;9.45;;;;;;;;;;5040312;28;20025;-73
2022/04/08 08:33:05;;;;;;;29.02;9.82;;;;;;;;;;5036607;28;20302;-73
2022/04/08 08:35:32;;;;;;;35.03;11.93;;;;;;;;;;5042180;28;20017;-72
2022/04/08 08:37:57;;;;;;;15.98;7.63;;;;;;;;;;5037105;28;20025;-72
2022/04/08 08:40:23;;;;;;;27.55;9.45;;;;;;;;;;5038096;28;20036;-73
2022/04/08 08:42:49;;;;;;;26.15;9.20;;;;;;;;;;5037944;28;20039;-74
2022/04/08 08:45:15;;;;;;;23.75;9.07;;;;;;;;;;5041134;28;20075;-73
2022/04/08 08:47:42;;;;;;;31.83;10.52;;;;;;;;;;5044696;28;20032;-72
2022/04/08 08:50:07;;;;;;;38.72;9.95;;;;;;;;;;5039915;28;20033;-74
2022/04/08 08:52:32;;;;;;;19.45;8.18;;;;;;;;;;5043953;28;20029;-74
2022/04/08 08:54:59;;;;;;;22.02;8.85;;;;;;;;;;5040357;28;20456;-74
2022/04/08 08:57:24;;;;;;;28.33;8.35;;;;;;;;;;5041841;28;20028;-75
2022/04/08 08:59:59;;;;;;;17.90;6.90;;;;;;;;;;5048248;28;20017;-74
2022/04/08 09:02:25;;;;;;;19.58;6.97;;;;;;;;;;5040198;28;20258;-74
2022/04/08 09:04:50;;;;;;;23.33;7.03;;;;;;;;;;5043466;28;20351;-74
2022/04/08 09:07:25;;;;;;;28.17;7.85;;;;;;;;;;5043545;28;20270;-73
2022/04/08 09:09:51;;;;;;;24.73;6.47;;;;;;;;;;5043360;28;20020;-75
2022/04/08 09:12:17;;;;;;;20.17;7.85;;;;;;;;;;5040887;28;20113;-75
2022/04/08 09:14:49;;;;;;;24.30;8.48;;;;;;;;;;5043583;28;20112;-76
2022/04/08 09:17:18;;;;;;;26.67;7.63;;;;;;;;;;5045369;28;20021;-74
2022/04/08 09:20:02;;;;;;;20.23;8.23;;;;;;;;;;5044697;28;20035;-75
2022/04/08 09:22:28;;;;;;;20.07;6.80;;;;;;;;;;5042060;28;20044;-74
2022/04/08 09:24:54;;;;;;;30.65;10.23;;;;;;;;;;5038131;28;20100;-75
2022/04/08 09:27:21;;;;;;;24.38;8.98;;;;;;;;;;5038710;28;20080;-75
2022/04/08 09:29:46;;;;;;;26.85;6.97;;;;;;;;;;5042146;28;20025;-77
2022/04/08 09:32:12;;;;;;;24.02;7.00;;;;;;;;;;5031984;28;20025;-73
2022/04/08 09:34:38;;;;;;;20.83;5.20;;;;;;;;;;5044337;28;20471;-75
2022/04/08 09:37:10;;;;;;;23.27;7.65;;;;;;;;;;5035745;28;20025;-73
2022/04/08 09:39:36;;;;;;;23.25;7.45;;;;;;;;;;5038145;28;20422;-73
2022/04/08 09:42:05;;;;;;;22.58;6.07;;;;;;;;;;5032286;28;20345;-74
2022/04/08 09:44:30;;;;;;;20.92;7.10;;;;;;;;;;5038704;28;20114;-74
2022/04/08 09:46:55;;;;;;;26.02;8.85;;;;;;;;;;5033293;28;20476;-74
2022/04/08 09:49:21;;;;;;;20.07;5.90;;;;;;;;;;5034599;28;20025;-75
2022/04/08 09:51:49;;;;;;;16.10;6.55;;;;;;;;;;5033344;28;20275;-75
2022/04/08 09:54:19;;;;;;;26.60;7.50;;;;;;;;;;5036703;28;20025;-75
2022/04/08 09:56:45;;;;;;;29.70;8.25;;;;;;;;;;5037113;28;20032;-73
2022/04/08 09:59:14;;;;;;;24.40;7.47;;;;;;;;;;5039055;28;20036;-75
2022/04/08 10:01:43;;;;;;;22.95;7.78;;;;;;;;;;5034243;28;20460;-75
2022/04/08 10:04:09;;;;;;;26.67;8.38;;;;;;;;;;5035926;28;20033;-73
2022/04/08 10:06:34;;;;;;;24.85;7.63;;;;;;;;;;5034654;28;20087;-74
2022/04/08 10:09:00;;;;;;;25.92;7.22;;;;;;;;;;5039759;28;20464;-74
2022/04/08 10:11:45;;;;;;;17.98;6.38;;;;;;;;;;5033834;28;20032;-76
2022/04/08 10:14:20;;;;;;;28.75;8.93;;;;;;;;;;5033520;28;20021;-74
2022/04/08 10:16:51;;;;;;;21.42;8.18;;;;;;;;;;5032942;28;20033;-74
2022/04/08 10:19:16;;;;;;;34.33;8.68;;;;;;;;;;5036682;28;20120;-76
2022/04/08 10:21:42;;;;;;;22.95;9.13;;;;;;;;;;5032238;28;20148;-74
2022/04/08 10:24:09;;;;;;;20.50;7.50;;;;;;;;;;5030061;28;20025;-70
2022/04/08 10:26:34;;;;;;;24.50;8.20;;;;;;;;;;5041339;28;20292;-75
2022/04/08 10:29:08;;;;;;;23.37;7.10;;;;;;;;;;5045815;28;20052;-75
2022/04/08 10:31:34;;;;;;;22.48;6.55;;;;;;;;;;5041145;28;20366;-74
2022/04/08 10:33:59;;;;;;;18.65;7.18;;;;;;;;;;5042532;28;20035;-75
2022/04/08 10:36:38;;;;;;;22.73;7.57;;;;;;;;;;5045053;28;20638;-75
2022/04/08 10:39:16;;;;;;;20.05;7.75;;;;;;;;;;5032389;28;20024;-75
2022/04/08 10:41:45;;;;;;;25.50;7.63;;;;;;;;;;5042134;28;20060;-75
2022/04/08 10:44:11;;;;;;;22.40;6.95;;;;;;;;;;5037031;28;20022;-75
2022/04/08 10:46:36;;;;;;;17.00;6.55;;;;;;;;;;5034988;28;20017;-75
2022/04/08 10:49:01;;;;;;;23.23;7.13;;;;;;;;;;5041577;28;20101;-74
2022/04/08 10:51:32;;;;;;;19.67;7.05;;;;;;;;;;5043802;28;20107;-74
2022/04/08 10:54:04;;;;;;;22.77;8.15;;;;;;;;;;5035385;28;20099;-75
2022/04/08 10:56:34;;;;;;;17.45;7.15;;;;;;;;;;5041817;28;20032;-74
2022/04/08 10:58:59;;;;;;;28.65;8.30;;;;;;;;;;5043877;28;20144;-74
2022/04/08 11:01:25;;;;;;;25.50;8.45;;;;;;;;;;5042510;28;20108;-75
2022/04/08 11:03:54;;;;;;;25.42;9.35;;;;;;;;;;5039631;28;20488;-73
2022/04/08 11:06:19;;;;;;;23.75;9.70;;;;;;;;;;5036620;28;20029;-74
2022/04/08 11:08:44;;;;;;;27.30;9.02;;;;;;;;;;5043661;28;20040;-75
2022/04/08 11:11:10;;;;;;;23.98;7.53;;;;;;;;;;5042087;28;20108;-76
2022/04/08 11:13:35;;;;;;;24.83;7.90;;;;;;;;;;5034419;28;20136;-75
2022/04/08 11:16:03;;;;;;;31.27;8.53;;;;;;;;;;5048094;28;20368;-73
2022/04/08 11:18:28;;;;;;;19.25;8.18;;;;;;;;;;5046654;28;20286;-75
2022/04/08 11:20:53;;;;;;;22.33;7.50;;;;;;;;;;5044575;28;20029;-76
2022/04/08 11:23:28;;;;;;;18.40;7.37;;;;;;;;;;5044920;28;20345;-75
2022/04/08 11:25:54;;;;;;;20.45;9.55;;;;;;;;;;5035476;28;20349;-74
2022/04/08 11:28:20;;;;;;;22.95;8.55;;;;;;;;;;5037198;28;20383;-74
2022/04/08 11:30:46;;;;;;;22.10;7.80;;;;;;;;;;5032391;28;20418;-76
2022/04/08 11:33:18;;;;;;;22.77;7.97;;;;;;;;;;5039954;28;20116;-76
2022/04/08 11:35:44;;;;;;;24.05;7.88;;;;;;;;;;5036735;28;20275;-77
2022/04/08 11:38:15;;;;;;;27.05;8.52;;;;;;;;;;5035321;28;20067;-77
2022/04/08 11:40:40;;;;;;;32.63;9.35;;;;;;;;;;5036580;28;20030;-74
2022/04/08 11:43:05;;;;;;;24.65;8.35;;;;;;;;;;5045810;28;20032;-75
2022/04/08 11:45:31;;;;;;;18.33;8.50;;;;;;;;;;5043468;28;20570;-75
2022/04/08 11:47:56;;;;;;;23.63;9.35;;;;;;;;;;5036668;28;20036;-74
2022/04/08 11:50:25;;;;;;;27.45;8.07;;;;;;;;;;5041433;28;20032;-74
2022/04/08 11:52:52;;;;;;;18.60;8.02;;;;;;;;;;5041821;28;20021;-75
2022/04/08 11:55:22;;;;;;;23.05;10.18;;;;;;;;;;5035875;28;20032;-77
2022/04/08 11:57:47;;;;;;;26.05;8.48;;;;;;;;;;5041713;28;20178;-75
2022/04/08 12:00:12;;;;;;;19.70;7.35;;;;;;;;;;5041187;28;20507;-75
2022/04/08 12:02:37;;;;;;;20.88;7.45;;;;;;;;;;5047624;28;20046;-75
2022/04/08 12:05:03;;;;;;;20.98;7.90;;;;;;;;;;5036665;28;20075;-75
2022/04/08 12:07:28;;;;;;;20.63;8.82;;;;;;;;;;5044317;28;20463;-75
2022/04/08 12:09:54;;;;;;;21.63;7.85;;;;;;;;;;5038206;28;20029;-76
2022/04/08 12:12:26;;;;;;;20.50;8.27;;;;;;;;;;5037990;28;20029;-75
2022/04/08 12:14:52;;;;;;;21.83;8.27;;;;;;;;;;5043858;28;20033;-75
2022/04/08 12:17:18;;;;;;;23.17;8.20;;;;;;;;;;5041485;28;20017;-74
2022/04/08 12:19:43;;;;;;;27.13;7.53;;;;;;;;;;5045760;28;20032;-75
2022/04/08 12:22:12;;;;;;;30.77;9.15;;;;;;;;;;5044853;28;20128;-76
2022/04/08 12:24:43;;;;;;;28.95;9.32;;;;;;;;;;5041116;28;20478;-75
2022/04/08 12:27:12;;;;;;;18.33;7.22;;;;;;;;;;5040396;28;20033;-76
2022/04/08 12:29:39;;;;;;;25.10;8.05;;;;;;;;;;5041040;28;20029;-74
2022/04/08 12:32:11;;;;;;;15.90;8.40;;;;;;;;;;5035440;28;20538;-74
2022/04/08 12:34:36;;;;;;;21.33;8.70;;;;;;;;;;5041440;28;20111;-74
2022/04/08 12:37:01;;;;;;;19.77;7.73;;;;;;;;;;5030806;28;20108;-74
2022/04/08 12:39:26;;;;;;;24.70;9.65;;;;;;;;;;5040858;28;20278;-73
2022/04/08 12:41:52;;;;;;;20.00;8.82;;;;;;;;;;5036222;28;20028;-74
2022/04/08 12:44:17;;;;;;;24.40;8.68;;;;;;;;;;5047911;28;20116;-74
2022/04/08 12:46:42;;;;;;;27.08;10.05;;;;;;;;;;5036260;28;20389;-73
2022/04/08 12:49:08;;;;;;;22.88;9.55;;;;;;;;;;5038982;28;20146;-74
2022/04/08 12:51:33;;;;;;;23.13;10.07;;;;;;;;;;5037582;28;20021;-73
2022/04/08 12:53:59;;;;;;;25.23;8.02;;;;;;;;;;5035255;28;20029;-76
2022/04/08 12:56:26;;;;;;;21.20;10.07;;;;;;;;;;5044507;28;20025;-75
2022/04/08 12:58:51;;;;;;;14.23;6.90;;;;;;;;;;5033239;28;20480;-76
2022/04/08 13:01:16;;;;;;;14.57;7.88;;;;;;;;;;5043261;28;20375;-75
2022/04/08 13:03:42;;;;;;;19.73;7.70;;;;;;;;;;5041882;28;20054;-75
2022/04/08 13:06:07;;;;;;;21.42;7.15;;;;;;;;;;5047171;28;20382;-75
2022/04/08 13:08:32;;;;;;;21.53;7.63;;;;;;;;;;5043795;28;20028;-76
2022/04/08 13:10:57;;;;;;;16.63;7.13;;;;;;;;;;5040320;28;20281;-75
2022/04/08 13:13:22;;;;;;;15.63;6.40;;;;;;;;;;5044653;28;20290;-76
2022/04/08 13:15:49;;;;;;;15.20;6.73;;;;;;;;;;5037898;28;20044;-75
2022/04/08 13:18:14;;;;;;;15.93;6.35;;;;;;;;;;5043207;28;20711;-75
2022/04/08 13:20:39;;;;;;;12.60;6.00;;;;;;;;;;5045852;28;20425;-76
2022/04/08 13:23:04;;;;;;;11.35;5.68;;;;;;;;;;5045503;28;20032;-75
2022/04/08 13:25:31;;;;;;;12.63;5.93;;;;;;;;;;5038412;28;20466;-75
2022/04/08 13:27:56;;;;;;;16.63;6.45;;;;;;;;;;5043356;28;20285;-75
2022/04/08 13:30:21;;;;;;;22.30;7.50;;;;;;;;;;5040257;28;20086;-74
2022/04/08 13:32:47;;;;;;;17.58;6.45;;;;;;;;;;5039691;28;20116;-75
2022/04/08 13:35:12;;;;;;;13.48;5.55;;;;;;;;;;5036275;28;20104;-75
2022/04/08 13:37:38;;;;;;;12.10;6.15;;;;;;;;;;5035139;28;20021;-76
2022/04/08 13:40:04;;;;;;;16.55;5.65;;;;;;;;;;5042674;28;20360;-76
2022/04/08 13:42:29;;;;;;;11.23;5.15;;;;;;;;;;5040127;28;20036;-72
2022/04/08 13:44:54;;;;;;;17.48;7.22;;;;;;;;;;5046672;28;20020;-75
2022/04/08 13:47:19;;;;;;;29.23;10.00;;;;;;;;;;5040935;28;20036;-76
2022/04/08 13:49:44;;;;;;;24.83;7.93;;;;;;;;;;5044706;28;20128;-76
2022/04/08 13:52:10;;;;;;;23.00;7.60;;;;;;;;;;5044069;28;20655;-76
2022/04/08 13:54:35;;;;;;;12.43;5.67;;;;;;;;;;5046575;28;20361;-75
2022/04/08 13:57:00;;;;;;;18.33;5.97;;;;;;;;;;5037302;28;20266;-76
2022/04/08 13:59:25;;;;;;;12.40;5.93;;;;;;;;;;5044596;28;20818;-76
2022/04/08 14:01:51;;;;;;;22.95;7.93;;;;;;;;;;5038713;28;20021;-77
2022/04/08 14:04:16;;;;;;;16.60;7.22;;;;;;;;;;5041169;28;20292;-76
2022/04/08 14:06:41;;;;;;;14.70;7.47;;;;;;;;;;5046088;28;20013;-76
2022/04/08 14:09:06;;;;;;;126.90;15.82;;;;;;;;;;5043243;28;20028;-76
2022/04/08 14:11:32;;;;;;;20.33;10.00;;;;;;;;;;5030485;28;20020;-74
2022/04/08 14:13:57;;;;;;;16.92;10.85;;;;;;;;;;5040742;28;20751;-75
2022/04/08 14:16:23;;;;;;;15.93;6.78;;;;;;;;;;5037806;28;20078;-75
2022/04/08 14:18:48;;;;;;;11.60;5.72;;;;;;;;;;5040774;28;20017;-74
2022/04/08 14:21:13;;;;;;;16.23;9.88;;;;;;;;;;5041720;28;20045;-75